sensor_id;sensor_type;location;lat;lon;timestamp;temperature;humidity
3134;DHT22;1577;49.912;10.924;2022-08-07T00:00:50;17.20;60.00
3134;DHT22;1577;49.912;10.924;2022-08-07T00:03:16;17.20;60.20
3134;DHT22;1577;49.912;10.924;2022-08-07T00:05:41;17.10;60.50
3134;DHT22;1577;49.912;10.924;2022-08-07T00:08:07;17.00;61.10
3134;DHT22;1577;49.912;10.924;2022-08-07T00:10:34;17.00;61.60
3134;DHT22;1577;49.912;10.924;2022-08-07T00:13:04;16.90;62.20
3134;DHT22;1577;49.912;10.924;2022-08-07T00:15:31;16.70;62.50
3134;DHT22;1577;49.912;10.924;2022-08-07T00:17:56;16.60;63.10
3134;DHT22;1577;49.912;10.924;2022-08-07T00:20:23;16.60;63.10
3134;DHT22;1577;49.912;10.924;2022-08-07T00:22:49;16.50;63.30
3134;DHT22;1577;49.912;10.924;2022-08-07T00:25:15;16.40;63.50
3134;DHT22;1577;49.912;10.924;2022-08-07T00:27:40;16.30;63.60
3134;DHT22;1577;49.912;10.924;2022-08-07T00:30:07;16.30;63.80
3134;DHT22;1577;49.912;10.924;2022-08-07T00:32:32;16.20;63.80
3134;DHT22;1577;49.912;10.924;2022-08-07T00:34:58;16.20;64.00
3134;DHT22;1577;49.912;10.924;2022-08-07T00:37:24;16.10;64.00
3134;DHT22;1577;49.912;10.924;2022-08-07T00:39:51;16.10;64.20
3134;DHT22;1577;49.912;10.924;2022-08-07T00:42:19;16.10;64.10
3134;DHT22;1577;49.912;10.924;2022-08-07T00:44:44;16.00;64.00
3134;DHT22;1577;49.912;10.924;2022-08-07T00:47:10;15.90;64.10
3134;DHT22;1577;49.912;10.924;2022-08-07T00:49:35;15.90;64.70
3134;DHT22;1577;49.912;10.924;2022-08-07T00:52:04;15.80;64.80
3134;DHT22;1577;49.912;10.924;2022-08-07T00:54:30;15.70;65.10
3134;DHT22;1577;49.912;10.924;2022-08-07T00:56:57;15.60;65.50
3134;DHT22;1577;49.912;10.924;2022-08-07T00:59:23;15.50;65.70
3134;DHT22;1577;49.912;10.924;2022-08-07T01:01:49;15.40;66.30
3134;DHT22;1577;49.912;10.924;2022-08-07T01:04:16;15.40;66.90
3134;DHT22;1577;49.912;10.924;2022-08-07T01:06:43;15.50;67.60
3134;DHT22;1577;49.912;10.924;2022-08-07T01:09:10;15.50;67.40
3134;DHT22;1577;49.912;10.924;2022-08-07T01:11:36;15.40;67.30
3134;DHT22;1577;49.912;10.924;2022-08-07T01:14:03;15.30;67.70
3134;DHT22;1577;49.912;10.924;2022-08-07T01:16:28;15.20;67.90
3134;DHT22;1577;49.912;10.924;2022-08-07T01:18:54;15.20;68.00
3134;DHT22;1577;49.912;10.924;2022-08-07T01:21:21;15.30;68.50
3134;DHT22;1577;49.912;10.924;2022-08-07T01:23:50;15.20;68.20
3134;DHT22;1577;49.912;10.924;2022-08-07T01:26:17;15.10;68.60
3134;DHT22;1577;49.912;10.924;2022-08-07T01:28:49;15.10;68.80
3134;DHT22;1577;49.912;10.924;2022-08-07T01:31:16;15.00;69.40
3134;DHT22;1577;49.912;10.924;2022-08-07T01:33:42;15.10;69.70
3134;DHT22;1577;49.912;10.924;2022-08-07T01:36:08;15.00;69.50
3134;DHT22;1577;49.912;10.924;2022-08-07T01:38:35;15.00;69.40
3134;DHT22;1577;49.912;10.924;2022-08-07T01:41:02;14.90;69.40
3134;DHT22;1577;49.912;10.924;2022-08-07T01:43:29;14.90;69.70
3134;DHT22;1577;49.912;10.924;2022-08-07T01:45:56;15.10;69.60
3134;DHT22;1577;49.912;10.924;2022-08-07T01:48:22;15.00;69.30
3134;DHT22;1577;49.912;10.924;2022-08-07T01:50:56;15.00;69.70
3134;DHT22;1577;49.912;10.924;2022-08-07T01:53:25;15.00;69.50
3134;DHT22;1577;49.912;10.924;2022-08-07T01:55:55;14.90;69.80
3134;DHT22;1577;49.912;10.924;2022-08-07T01:58:29;14.90;70.10
3134;DHT22;1577;49.912;10.924;2022-08-07T02:01:03;14.80;70.00
3134;DHT22;1577;49.912;10.924;2022-08-07T02:03:33;14.80;70.40
3134;DHT22;1577;49.912;10.924;2022-08-07T02:06:04;14.80;70.50
3134;DHT22;1577;49.912;10.924;2022-08-07T02:08:35;14.80;71.00
3134;DHT22;1577;49.912;10.924;2022-08-07T02:11:03;14.70;71.20
3134;DHT22;1577;49.912;10.924;2022-08-07T02:13:31;14.60;71.20
3134;DHT22;1577;49.912;10.924;2022-08-07T02:15:59;14.70;71.50
3134;DHT22;1577;49.912;10.924;2022-08-07T02:18:28;14.60;71.80
3134;DHT22;1577;49.912;10.924;2022-08-07T02:20:55;14.70;72.10
3134;DHT22;1577;49.912;10.924;2022-08-07T02:23:22;14.60;72.20
3134;DHT22;1577;49.912;10.924;2022-08-07T02:25:51;14.50;72.30
3134;DHT22;1577;49.912;10.924;2022-08-07T02:28:19;14.50;72.70
3134;DHT22;1577;49.912;10.924;2022-08-07T02:30:45;14.40;72.80
3134;DHT22;1577;49.912;10.924;2022-08-07T02:33:13;14.30;73.40
3134;DHT22;1577;49.912;10.924;2022-08-07T02:35:40;14.30;73.70
3134;DHT22;1577;49.912;10.924;2022-08-07T02:38:07;14.40;73.60
3134;DHT22;1577;49.912;10.924;2022-08-07T02:40:33;14.30;73.90
3134;DHT22;1577;49.912;10.924;2022-08-07T02:43:00;14.30;73.90
3134;DHT22;1577;49.912;10.924;2022-08-07T02:45:27;14.20;74.00
3134;DHT22;1577;49.912;10.924;2022-08-07T02:47:55;14.30;74.70
3134;DHT22;1577;49.912;10.924;2022-08-07T02:50:21;14.30;74.50
3134;DHT22;1577;49.912;10.924;2022-08-07T02:52:51;14.30;74.90
3134;DHT22;1577;49.912;10.924;2022-08-07T02:55:20;14.30;75.00
3134;DHT22;1577;49.912;10.924;2022-08-07T02:57:48;14.20;75.20
3134;DHT22;1577;49.912;10.924;2022-08-07T03:00:14;14.20;75.50
3134;DHT22;1577;49.912;10.924;2022-08-07T03:02:43;14.10;75.40
3134;DHT22;1577;49.912;10.924;2022-08-07T03:05:10;14.20;75.90
3134;DHT22;1577;49.912;10.924;2022-08-07T03:07:37;14.20;75.90
3134;DHT22;1577;49.912;10.924;2022-08-07T03:10:03;14.10;75.80
3134;DHT22;1577;49.912;10.924;2022-08-07T03:12:31;14.10;75.60
3134;DHT22;1577;49.912;10.924;2022-08-07T03:14:58;14.10;75.80
3134;DHT22;1577;49.912;10.924;2022-08-07T03:17:25;14.00;76.20
3134;DHT22;1577;49.912;10.924;2022-08-07T03:19:51;14.00;76.20
3134;DHT22;1577;49.912;10.924;2022-08-07T03:22:17;13.90;76.20
3134;DHT22;1577;49.912;10.924;2022-08-07T03:24:44;13.90;76.40
3134;DHT22;1577;49.912;10.924;2022-08-07T03:27:10;13.90;76.50
3134;DHT22;1577;49.912;10.924;2022-08-07T03:29:41;13.80;77.00
3134;DHT22;1577;49.912;10.924;2022-08-07T03:32:11;13.80;77.40
3134;DHT22;1577;49.912;10.924;2022-08-07T03:34:37;13.90;77.20
3134;DHT22;1577;49.912;10.924;2022-08-07T03:37:05;13.90;77.10
3134;DHT22;1577;49.912;10.924;2022-08-07T03:39:33;13.90;77.80
3134;DHT22;1577;49.912;10.924;2022-08-07T03:42:04;13.80;77.80
3134;DHT22;1577;49.912;10.924;2022-08-07T03:44:32;13.70;78.00
3134;DHT22;1577;49.912;10.924;2022-08-07T03:46:59;13.70;78.80
3134;DHT22;1577;49.912;10.924;2022-08-07T03:49:26;13.80;78.80
3134;DHT22;1577;49.912;10.924;2022-08-07T03:51:52;13.70;79.20
3134;DHT22;1577;49.912;10.924;2022-08-07T03:54:19;13.70;79.50
3134;DHT22;1577;49.912;10.924;2022-08-07T03:56:45;13.60;79.40
3134;DHT22;1577;49.912;10.924;2022-08-07T03:59:12;13.60;80.10
3134;DHT22;1577;49.912;10.924;2022-08-07T04:01:43;13.50;80.10
3134;DHT22;1577;49.912;10.924;2022-08-07T04:04:09;13.60;80.80
3134;DHT22;1577;49.912;10.924;2022-08-07T04:06:38;13.70;80.90
3134;DHT22;1577;49.912;10.924;2022-08-07T04:09:08;13.60;80.50
3134;DHT22;1577;49.912;10.924;2022-08-07T04:11:35;13.50;81.00
3134;DHT22;1577;49.912;10.924;2022-08-07T04:14:02;13.40;81.50
3134;DHT22;1577;49.912;10.924;2022-08-07T04:16:29;13.40;81.80
3134;DHT22;1577;49.912;10.924;2022-08-07T04:18:55;13.40;82.00
3134;DHT22;1577;49.912;10.924;2022-08-07T04:21:20;13.40;82.40
3134;DHT22;1577;49.912;10.924;2022-08-07T04:23:47;13.50;82.90
3134;DHT22;1577;49.912;10.924;2022-08-07T04:26:13;13.60;83.00
3134;DHT22;1577;49.912;10.924;2022-08-07T04:28:39;13.60;82.70
3134;DHT22;1577;49.912;10.924;2022-08-07T04:31:05;13.50;82.90
3134;DHT22;1577;49.912;10.924;2022-08-07T04:33:31;13.50;83.30
3134;DHT22;1577;49.912;10.924;2022-08-07T04:35:57;13.70;83.70
3134;DHT22;1577;49.912;10.924;2022-08-07T04:38:24;13.70;83.20
3134;DHT22;1577;49.912;10.924;2022-08-07T04:40:50;13.60;83.50
3134;DHT22;1577;49.912;10.924;2022-08-07T04:43:17;13.70;83.90
3134;DHT22;1577;49.912;10.924;2022-08-07T04:46:02;13.80;83.60
3134;DHT22;1577;49.912;10.924;2022-08-07T04:51:33;13.90;83.50
3134;DHT22;1577;49.912;10.924;2022-08-07T04:54:10;13.90;83.50
3134;DHT22;1577;49.912;10.924;2022-08-07T04:56:49;13.90;83.20
3134;DHT22;1577;49.912;10.924;2022-08-07T04:59:23;13.90;83.80
3134;DHT22;1577;49.912;10.924;2022-08-07T05:07:04;14.00;83.70
3134;DHT22;1577;49.912;10.924;2022-08-07T05:09:44;14.00;83.70
3134;DHT22;1577;49.912;10.924;2022-08-07T05:12:15;14.10;83.80
3134;DHT22;1577;49.912;10.924;2022-08-07T05:14:43;14.20;84.00
3134;DHT22;1577;49.912;10.924;2022-08-07T05:17:12;14.20;84.00
3134;DHT22;1577;49.912;10.924;2022-08-07T05:19:42;14.20;83.80
3134;DHT22;1577;49.912;10.924;2022-08-07T05:22:10;14.30;83.60
3134;DHT22;1577;49.912;10.924;2022-08-07T05:24:38;14.30;83.70
3134;DHT22;1577;49.912;10.924;2022-08-07T05:27:05;14.40;83.70
3134;DHT22;1577;49.912;10.924;2022-08-07T05:29:33;14.40;83.80
3134;DHT22;1577;49.912;10.924;2022-08-07T05:32:02;14.50;83.60
3134;DHT22;1577;49.912;10.924;2022-08-07T05:34:28;14.60;83.40
3134;DHT22;1577;49.912;10.924;2022-08-07T05:36:55;14.60;83.40
3134;DHT22;1577;49.912;10.924;2022-08-07T05:39:22;14.70;83.40
3134;DHT22;1577;49.912;10.924;2022-08-07T05:41:49;14.70;82.70
3134;DHT22;1577;49.912;10.924;2022-08-07T05:44:19;14.80;82.30
3134;DHT22;1577;49.912;10.924;2022-08-07T05:46:48;14.90;82.40
3134;DHT22;1577;49.912;10.924;2022-08-07T05:49:14;15.00;82.20
3134;DHT22;1577;49.912;10.924;2022-08-07T05:51:44;15.00;82.10
3134;DHT22;1577;49.912;10.924;2022-08-07T05:54:11;15.10;81.30
3134;DHT22;1577;49.912;10.924;2022-08-07T05:56:39;15.20;80.90
3134;DHT22;1577;49.912;10.924;2022-08-07T05:59:07;15.20;81.10
3134;DHT22;1577;49.912;10.924;2022-08-07T06:01:35;15.30;81.00
3134;DHT22;1577;49.912;10.924;2022-08-07T06:04:03;15.40;80.90
3134;DHT22;1577;49.912;10.924;2022-08-07T06:06:31;15.40;80.50
3134;DHT22;1577;49.912;10.924;2022-08-07T06:08:57;15.50;80.40
3134;DHT22;1577;49.912;10.924;2022-08-07T06:11:24;15.60;80.10
3134;DHT22;1577;49.912;10.924;2022-08-07T06:13:50;15.70;79.90
3134;DHT22;1577;49.912;10.924;2022-08-07T06:16:17;15.80;78.90
3134;DHT22;1577;49.912;10.924;2022-08-07T06:18:44;15.90;78.60
3134;DHT22;1577;49.912;10.924;2022-08-07T06:21:11;16.00;77.80
3134;DHT22;1577;49.912;10.924;2022-08-07T06:23:37;16.10;76.60
3134;DHT22;1577;49.912;10.924;2022-08-07T06:26:04;16.30;76.80
3134;DHT22;1577;49.912;10.924;2022-08-07T06:28:30;16.40;75.10
3134;DHT22;1577;49.912;10.924;2022-08-07T06:30:56;16.50;73.60
3134;DHT22;1577;49.912;10.924;2022-08-07T06:33:23;16.60;73.70
3134;DHT22;1577;49.912;10.924;2022-08-07T06:35:49;16.70;73.60
3134;DHT22;1577;49.912;10.924;2022-08-07T06:38:14;16.80;72.70
3134;DHT22;1577;49.912;10.924;2022-08-07T06:40:46;16.90;72.90
3134;DHT22;1577;49.912;10.924;2022-08-07T06:43:14;17.10;72.70
3134;DHT22;1577;49.912;10.924;2022-08-07T06:45:40;17.70;71.30
3134;DHT22;1577;49.912;10.924;2022-08-07T06:48:06;18.60;69.90
3134;DHT22;1577;49.912;10.924;2022-08-07T06:50:33;19.80;67.10
3134;DHT22;1577;49.912;10.924;2022-08-07T06:53:00;21.10;64.00
3134;DHT22;1577;49.912;10.924;2022-08-07T06:55:29;22.30;61.80
3134;DHT22;1577;49.912;10.924;2022-08-07T06:57:58;23.50;59.00
3134;DHT22;1577;49.912;10.924;2022-08-07T07:00:30;24.80;57.80
3134;DHT22;1577;49.912;10.924;2022-08-07T07:02:56;26.30;56.10
3134;DHT22;1577;49.912;10.924;2022-08-07T07:05:22;27.00;53.00
3134;DHT22;1577;49.912;10.924;2022-08-07T07:07:48;27.90;51.80
3134;DHT22;1577;49.912;10.924;2022-08-07T07:10:14;29.10;51.20
3134;DHT22;1577;49.912;10.924;2022-08-07T07:12:49;29.90;48.20
3134;DHT22;1577;49.912;10.924;2022-08-07T07:15:29;30.40;47.90
3134;DHT22;1577;49.912;10.924;2022-08-07T07:18:06;30.80;46.20
3134;DHT22;1577;49.912;10.924;2022-08-07T07:20:48;31.00;46.40
3134;DHT22;1577;49.912;10.924;2022-08-07T07:23:15;31.20;45.80
3134;DHT22;1577;49.912;10.924;2022-08-07T07:25:43;30.80;45.00
3134;DHT22;1577;49.912;10.924;2022-08-07T07:28:24;30.50;44.90
3134;DHT22;1577;49.912;10.924;2022-08-07T07:30:59;30.60;45.80
3134;DHT22;1577;49.912;10.924;2022-08-07T07:33:27;31.50;44.40
3134;DHT22;1577;49.912;10.924;2022-08-07T07:35:54;32.10;44.70
3134;DHT22;1577;49.912;10.924;2022-08-07T07:38:23;32.50;43.70
3134;DHT22;1577;49.912;10.924;2022-08-07T07:40:57;32.60;42.80
3134;DHT22;1577;49.912;10.924;2022-08-07T07:43:26;32.80;43.10
3134;DHT22;1577;49.912;10.924;2022-08-07T07:45:53;32.90;44.00
3134;DHT22;1577;49.912;10.924;2022-08-07T07:48:20;33.10;42.80
3134;DHT22;1577;49.912;10.924;2022-08-07T07:50:48;33.20;42.00
3134;DHT22;1577;49.912;10.924;2022-08-07T07:53:16;33.20;41.80
3134;DHT22;1577;49.912;10.924;2022-08-07T07:55:43;33.00;41.50
3134;DHT22;1577;49.912;10.924;2022-08-07T07:58:09;32.80;41.80
3134;DHT22;1577;49.912;10.924;2022-08-07T08:00:35;32.90;42.20
3134;DHT22;1577;49.912;10.924;2022-08-07T08:03:05;33.00;41.20
3134;DHT22;1577;49.912;10.924;2022-08-07T08:05:37;33.00;41.50
3134;DHT22;1577;49.912;10.924;2022-08-07T08:08:04;33.00;41.70
3134;DHT22;1577;49.912;10.924;2022-08-07T08:10:30;33.30;41.70
3134;DHT22;1577;49.912;10.924;2022-08-07T08:12:57;33.50;41.60
3134;DHT22;1577;49.912;10.924;2022-08-07T08:15:24;33.80;39.80
3134;DHT22;1577;49.912;10.924;2022-08-07T08:17:51;33.50;39.70
3134;DHT22;1577;49.912;10.924;2022-08-07T08:20:17;32.80;40.70
3134;DHT22;1577;49.912;10.924;2022-08-07T08:22:45;32.10;40.90
3134;DHT22;1577;49.912;10.924;2022-08-07T08:25:33;31.50;41.90
3134;DHT22;1577;49.912;10.924;2022-08-07T08:28:25;31.50;41.90
3134;DHT22;1577;49.912;10.924;2022-08-07T08:30:57;31.50;41.40
3134;DHT22;1577;49.912;10.924;2022-08-07T08:33:28;31.70;41.20
3134;DHT22;1577;49.912;10.924;2022-08-07T08:35:54;31.70;40.70
3134;DHT22;1577;49.912;10.924;2022-08-07T08:38:24;31.80;40.40
3134;DHT22;1577;49.912;10.924;2022-08-07T08:41:04;31.70;40.50
3134;DHT22;1577;49.912;10.924;2022-08-07T08:44:22;31.80;40.50
3134;DHT22;1577;49.912;10.924;2022-08-07T08:49:22;32.40;38.40
3134;DHT22;1577;49.912;10.924;2022-08-07T08:52:42;32.40;39.20
3134;DHT22;1577;49.912;10.924;2022-08-07T09:00:29;33.10;38.50
3134;DHT22;1577;49.912;10.924;2022-08-07T09:03:10;33.10;37.90
3134;DHT22;1577;49.912;10.924;2022-08-07T09:05:47;33.00;39.20
3134;DHT22;1577;49.912;10.924;2022-08-07T09:08:39;33.00;38.30
3134;DHT22;1577;49.912;10.924;2022-08-07T09:11:18;33.20;39.00
3134;DHT22;1577;49.912;10.924;2022-08-07T09:14:13;33.00;38.70
3134;DHT22;1577;49.912;10.924;2022-08-07T09:22:02;33.00;38.30
3134;DHT22;1577;49.912;10.924;2022-08-07T09:24:45;32.60;38.70
3134;DHT22;1577;49.912;10.924;2022-08-07T09:27:37;32.70;39.10
3134;DHT22;1577;49.912;10.924;2022-08-07T09:30:08;32.60;37.70
3134;DHT22;1577;49.912;10.924;2022-08-07T09:41:05;31.50;38.90
3134;DHT22;1577;49.912;10.924;2022-08-07T09:44:11;31.50;39.10
3134;DHT22;1577;49.912;10.924;2022-08-07T09:47:14;31.10;38.90
3134;DHT22;1577;49.912;10.924;2022-08-07T09:52:34;30.40;39.70
3134;DHT22;1577;49.912;10.924;2022-08-07T09:58:14;29.60;40.30
3134;DHT22;1577;49.912;10.924;2022-08-07T10:01:19;29.40;40.60
3134;DHT22;1577;49.912;10.924;2022-08-07T10:07:12;29.00;40.60
3134;DHT22;1577;49.912;10.924;2022-08-07T10:15:15;28.10;42.20
3134;DHT22;1577;49.912;10.924;2022-08-07T10:17:58;27.80;42.80
3134;DHT22;1577;49.912;10.924;2022-08-07T10:36:58;26.10;44.00
3134;DHT22;1577;49.912;10.924;2022-08-07T10:45:30;25.50;44.40
3134;DHT22;1577;49.912;10.924;2022-08-07T10:50:59;25.40;44.20
3134;DHT22;1577;49.912;10.924;2022-08-07T11:02:34;25.10;45.00
3134;DHT22;1577;49.912;10.924;2022-08-07T11:08:11;25.10;45.50
3134;DHT22;1577;49.912;10.924;2022-08-07T11:10:44;25.20;45.30
3134;DHT22;1577;49.912;10.924;2022-08-07T11:16:48;25.20;45.50
3134;DHT22;1577;49.912;10.924;2022-08-07T11:21:41;25.30;45.80
3134;DHT22;1577;49.912;10.924;2022-08-07T11:27:01;25.20;45.60
3134;DHT22;1577;49.912;10.924;2022-08-07T11:30:02;25.40;45.70
3134;DHT22;1577;49.912;10.924;2022-08-07T11:32:47;25.40;45.90
3134;DHT22;1577;49.912;10.924;2022-08-07T11:38:19;25.50;45.20
3134;DHT22;1577;49.912;10.924;2022-08-07T11:43:28;25.40;45.40
3134;DHT22;1577;49.912;10.924;2022-08-07T12:08:57;25.30;46.00
3134;DHT22;1577;49.912;10.924;2022-08-07T12:14:23;25.30;45.80
3134;DHT22;1577;49.912;10.924;2022-08-07T12:16:55;25.40;44.70
3134;DHT22;1577;49.912;10.924;2022-08-07T12:25:31;25.70;43.50
3134;DHT22;1577;49.912;10.924;2022-08-07T12:28:22;25.70;43.00
3134;DHT22;1577;49.912;10.924;2022-08-07T12:30:51;25.70;43.10
3134;DHT22;1577;49.912;10.924;2022-08-07T12:33:20;25.60;42.90
3134;DHT22;1577;49.912;10.924;2022-08-07T12:35:48;25.60;43.10
3134;DHT22;1577;49.912;10.924;2022-08-07T12:38:15;25.60;42.80
3134;DHT22;1577;49.912;10.924;2022-08-07T12:40:43;25.40;42.50
3134;DHT22;1577;49.912;10.924;2022-08-07T12:43:10;25.40;42.70
3134;DHT22;1577;49.912;10.924;2022-08-07T12:45:47;25.40;42.50
3134;DHT22;1577;49.912;10.924;2022-08-07T12:48:38;25.30;42.90
3134;DHT22;1577;49.912;10.924;2022-08-07T12:51:14;25.40;42.90
3134;DHT22;1577;49.912;10.924;2022-08-07T12:54:00;25.50;43.30
3134;DHT22;1577;49.912;10.924;2022-08-07T12:56:32;25.50;42.70
3134;DHT22;1577;49.912;10.924;2022-08-07T12:59:01;25.50;43.00
3134;DHT22;1577;49.912;10.924;2022-08-07T13:01:41;25.50;42.70
3134;DHT22;1577;49.912;10.924;2022-08-07T13:07:21;25.50;42.80
3134;DHT22;1577;49.912;10.924;2022-08-07T13:10:09;25.60;42.70
3134;DHT22;1577;49.912;10.924;2022-08-07T13:12:55;25.60;42.80
3134;DHT22;1577;49.912;10.924;2022-08-07T13:21:04;25.60;42.40
3134;DHT22;1577;49.912;10.924;2022-08-07T13:24:16;25.60;42.40
3134;DHT22;1577;49.912;10.924;2022-08-07T13:26:39;25.60;42.10
3134;DHT22;1577;49.912;10.924;2022-08-07T13:29:16;25.70;42.30
3134;DHT22;1577;49.912;10.924;2022-08-07T13:32:03;25.70;42.30
3134;DHT22;1577;49.912;10.924;2022-08-07T13:37:17;25.70;42.50
3134;DHT22;1577;49.912;10.924;2022-08-07T13:42:39;25.80;42.10
3134;DHT22;1577;49.912;10.924;2022-08-07T13:45:07;25.80;42.00
3134;DHT22;1577;49.912;10.924;2022-08-07T13:47:36;25.80;42.40
3134;DHT22;1577;49.912;10.924;2022-08-07T13:50:04;25.80;42.30
3134;DHT22;1577;49.912;10.924;2022-08-07T13:52:35;25.80;42.00
3134;DHT22;1577;49.912;10.924;2022-08-07T13:55:07;25.80;41.70
3134;DHT22;1577;49.912;10.924;2022-08-07T13:57:38;25.80;41.70
3134;DHT22;1577;49.912;10.924;2022-08-07T14:00:06;25.80;41.60
3134;DHT22;1577;49.912;10.924;2022-08-07T14:02:34;25.80;41.60
3134;DHT22;1577;49.912;10.924;2022-08-07T14:05:06;25.80;41.90
3134;DHT22;1577;49.912;10.924;2022-08-07T14:07:42;25.70;41.50
3134;DHT22;1577;49.912;10.924;2022-08-07T14:10:08;25.60;41.70
3134;DHT22;1577;49.912;10.924;2022-08-07T14:15:34;25.50;41.90
3134;DHT22;1577;49.912;10.924;2022-08-07T14:18:17;25.60;41.90
3134;DHT22;1577;49.912;10.924;2022-08-07T14:20:48;25.60;42.00
3134;DHT22;1577;49.912;10.924;2022-08-07T14:23:26;25.60;41.90
3134;DHT22;1577;49.912;10.924;2022-08-07T14:26:04;25.60;41.80
3134;DHT22;1577;49.912;10.924;2022-08-07T14:28:34;25.60;41.70
3134;DHT22;1577;49.912;10.924;2022-08-07T14:31:02;25.70;41.20
3134;DHT22;1577;49.912;10.924;2022-08-07T14:33:31;25.70;40.90
3134;DHT22;1577;49.912;10.924;2022-08-07T14:35:59;25.70;40.60
3134;DHT22;1577;49.912;10.924;2022-08-07T14:38:28;25.70;41.20
3134;DHT22;1577;49.912;10.924;2022-08-07T14:40:59;25.70;41.90
3134;DHT22;1577;49.912;10.924;2022-08-07T14:43:28;25.70;41.30
3134;DHT22;1577;49.912;10.924;2022-08-07T14:45:56;25.80;41.30
3134;DHT22;1577;49.912;10.924;2022-08-07T14:48:28;25.80;41.50
3134;DHT22;1577;49.912;10.924;2022-08-07T14:51:00;25.80;41.10
3134;DHT22;1577;49.912;10.924;2022-08-07T14:53:31;25.90;40.90
3134;DHT22;1577;49.912;10.924;2022-08-07T14:56:03;25.90;40.80
3134;DHT22;1577;49.912;10.924;2022-08-07T14:58:34;25.90;40.40
3134;DHT22;1577;49.912;10.924;2022-08-07T15:01:01;25.90;40.00
3134;DHT22;1577;49.912;10.924;2022-08-07T15:03:28;25.90;40.10
3134;DHT22;1577;49.912;10.924;2022-08-07T15:05:56;25.90;40.40
3134;DHT22;1577;49.912;10.924;2022-08-07T15:08:26;25.90;40.30
3134;DHT22;1577;49.912;10.924;2022-08-07T15:11:00;26.00;39.60
3134;DHT22;1577;49.912;10.924;2022-08-07T15:13:27;26.00;39.60
3134;DHT22;1577;49.912;10.924;2022-08-07T15:16:05;26.00;39.80
3134;DHT22;1577;49.912;10.924;2022-08-07T15:18:36;26.00;40.20
3134;DHT22;1577;49.912;10.924;2022-08-07T15:21:06;26.00;40.00
3134;DHT22;1577;49.912;10.924;2022-08-07T15:23:37;26.00;39.80
3134;DHT22;1577;49.912;10.924;2022-08-07T15:26:06;25.90;39.70
3134;DHT22;1577;49.912;10.924;2022-08-07T15:28:34;25.90;39.70
3134;DHT22;1577;49.912;10.924;2022-08-07T15:31:05;25.90;39.70
3134;DHT22;1577;49.912;10.924;2022-08-07T15:33:34;26.00;40.00
3134;DHT22;1577;49.912;10.924;2022-08-07T15:36:01;26.00;39.50
3134;DHT22;1577;49.912;10.924;2022-08-07T15:38:30;26.00;39.20
3134;DHT22;1577;49.912;10.924;2022-08-07T15:40:57;25.90;39.40
3134;DHT22;1577;49.912;10.924;2022-08-07T15:43:28;25.90;39.90
3134;DHT22;1577;49.912;10.924;2022-08-07T15:45:57;25.90;40.00
3134;DHT22;1577;49.912;10.924;2022-08-07T15:48:30;25.90;39.70
3134;DHT22;1577;49.912;10.924;2022-08-07T15:51:05;25.90;39.80
3134;DHT22;1577;49.912;10.924;2022-08-07T15:53:38;25.90;39.90
3134;DHT22;1577;49.912;10.924;2022-08-07T15:56:06;25.90;39.50
3134;DHT22;1577;49.912;10.924;2022-08-07T15:58:48;25.90;39.60
3134;DHT22;1577;49.912;10.924;2022-08-07T16:01:38;25.90;39.60
3134;DHT22;1577;49.912;10.924;2022-08-07T16:04:07;26.00;39.90
3134;DHT22;1577;49.912;10.924;2022-08-07T16:21:02;25.90;40.20
3134;DHT22;1577;49.912;10.924;2022-08-07T16:28:53;26.00;40.00
3134;DHT22;1577;49.912;10.924;2022-08-07T16:34:18;26.00;39.70
3134;DHT22;1577;49.912;10.924;2022-08-07T16:39:43;26.00;40.60
3134;DHT22;1577;49.912;10.924;2022-08-07T16:44:55;26.00;40.20
3134;DHT22;1577;49.912;10.924;2022-08-07T16:50:37;26.10;40.40
3134;DHT22;1577;49.912;10.924;2022-08-07T16:53:12;26.10;40.40
3134;DHT22;1577;49.912;10.924;2022-08-07T17:04:02;26.00;40.40
3134;DHT22;1577;49.912;10.924;2022-08-07T17:06:55;25.90;40.10
3134;DHT22;1577;49.912;10.924;2022-08-07T17:12:21;25.90;40.20
3134;DHT22;1577;49.912;10.924;2022-08-07T17:20:34;25.80;39.70
3134;DHT22;1577;49.912;10.924;2022-08-07T17:31:24;25.70;40.30
3134;DHT22;1577;49.912;10.924;2022-08-07T17:34:11;25.60;40.40
3134;DHT22;1577;49.912;10.924;2022-08-07T17:36:40;25.60;40.30
3134;DHT22;1577;49.912;10.924;2022-08-07T17:39:29;25.60;40.40
3134;DHT22;1577;49.912;10.924;2022-08-07T17:42:14;25.60;40.10
3134;DHT22;1577;49.912;10.924;2022-08-07T17:44:53;25.50;40.10
3134;DHT22;1577;49.912;10.924;2022-08-07T17:50:05;25.50;40.40
3134;DHT22;1577;49.912;10.924;2022-08-07T17:52:45;25.40;40.10
3134;DHT22;1577;49.912;10.924;2022-08-07T17:55:15;25.30;40.30
3134;DHT22;1577;49.912;10.924;2022-08-07T17:57:59;25.30;40.60
3134;DHT22;1577;49.912;10.924;2022-08-07T18:00:28;25.30;40.50
3134;DHT22;1577;49.912;10.924;2022-08-07T18:08:27;25.10;41.00
3134;DHT22;1577;49.912;10.924;2022-08-07T18:13:38;25.00;41.60
3134;DHT22;1577;49.912;10.924;2022-08-07T18:19:06;24.90;42.00
3134;DHT22;1577;49.912;10.924;2022-08-07T18:21:35;24.90;42.30
3134;DHT22;1577;49.912;10.924;2022-08-07T18:43:03;24.10;44.70
3134;DHT22;1577;49.912;10.924;2022-08-07T18:45:53;24.00;45.00
3134;DHT22;1577;49.912;10.924;2022-08-07T18:48:30;23.90;45.30
3134;DHT22;1577;49.912;10.924;2022-08-07T18:56:52;23.60;46.50
3134;DHT22;1577;49.912;10.924;2022-08-07T19:02:34;23.20;47.60
3134;DHT22;1577;49.912;10.924;2022-08-07T19:07:30;23.00;48.00
3134;DHT22;1577;49.912;10.924;2022-08-07T19:10:10;22.90;48.00
3134;DHT22;1577;49.912;10.924;2022-08-07T19:12:56;22.70;48.50
3134;DHT22;1577;49.912;10.924;2022-08-07T19:15:50;22.60;48.50
3134;DHT22;1577;49.912;10.924;2022-08-07T19:23:44;22.40;48.60
3134;DHT22;1577;49.912;10.924;2022-08-07T19:26:13;22.30;48.90
3134;DHT22;1577;49.912;10.924;2022-08-07T19:28:50;22.30;48.80
3134;DHT22;1577;49.912;10.924;2022-08-07T19:31:22;22.20;48.60
3134;DHT22;1577;49.912;10.924;2022-08-07T19:33:49;22.20;48.90
3134;DHT22;1577;49.912;10.924;2022-08-07T19:36:16;22.10;49.10
3134;DHT22;1577;49.912;10.924;2022-08-07T19:38:46;22.10;49.50
3134;DHT22;1577;49.912;10.924;2022-08-07T19:41:15;22.00;49.40
3134;DHT22;1577;49.912;10.924;2022-08-07T19:43:42;22.00;49.60
3134;DHT22;1577;49.912;10.924;2022-08-07T19:46:12;21.90;49.80
3134;DHT22;1577;49.912;10.924;2022-08-07T19:48:48;21.90;49.90
3134;DHT22;1577;49.912;10.924;2022-08-07T19:51:16;21.90;50.10
3134;DHT22;1577;49.912;10.924;2022-08-07T19:53:56;21.80;50.10
3134;DHT22;1577;49.912;10.924;2022-08-07T19:56:26;21.70;50.10
3134;DHT22;1577;49.912;10.924;2022-08-07T19:58:53;21.70;50.30
3134;DHT22;1577;49.912;10.924;2022-08-07T20:01:19;21.60;50.20
3134;DHT22;1577;49.912;10.924;2022-08-07T20:03:46;21.60;50.20
3134;DHT22;1577;49.912;10.924;2022-08-07T20:06:13;21.60;50.30
3134;DHT22;1577;49.912;10.924;2022-08-07T20:08:41;21.60;50.40
3134;DHT22;1577;49.912;10.924;2022-08-07T20:11:12;21.50;50.40
3134;DHT22;1577;49.912;10.924;2022-08-07T20:16:15;21.40;50.40
3134;DHT22;1577;49.912;10.924;2022-08-07T20:18:42;21.40;50.70
3134;DHT22;1577;49.912;10.924;2022-08-07T20:21:08;21.40;50.80
3134;DHT22;1577;49.912;10.924;2022-08-07T20:23:34;21.30;50.70